Time;durP1;ratioP1;P1;durP2;ratioP2;P2;SDS_P1;SDS_P2;PMS_P1;PMS_P2;Temp;Humidity;BMP_temperature;BMP_pressure;BME280_temperature;BME280_humidity;BME280_pressure;Samples;Min_cycle;Max_cycle;Signal;HPM_P1;HPM_P2
2022/02/15 00:04:07;;;;;;;1.90;1.80;;;9.70;99.90;;;;;;10428800;28;20228;-84
2022/02/15 00:09:09;;;;;;;1.93;1.53;;;9.70;99.90;;;;;;10429710;28;20243;-85
2022/02/15 00:14:12;;;;;;;1.60;1.50;;;9.70;99.90;;;;;;10424074;28;20225;-86
2022/02/15 00:19:15;;;;;;;1.63;1.53;;;9.70;99.90;;;;;;10416224;28;20224;-85
2022/02/15 00:24:17;;;;;;;1.80;1.70;;;9.70;99.90;;;;;;10433228;28;20221;-86
2022/02/15 00:29:19;;;;;;;2.00;1.90;;;9.60;99.90;;;;;;10427388;28;20289;-86
2022/02/15 00:34:23;;;;;;;1.97;1.87;;;9.60;99.90;;;;;;10419821;28;20248;-85
2022/02/15 00:39:25;;;;;;;2.03;1.93;;;9.60;99.90;;;;;;10438597;28;20452;-85
2022/02/15 00:44:27;;;;;;;1.90;1.80;;;9.60;99.90;;;;;;10398303;28;20221;-85
2022/02/15 00:49:31;;;;;;;2.30;2.20;;;9.60;99.90;;;;;;10464557;28;20646;-85
2022/02/15 00:54:33;;;;;;;1.80;1.70;;;9.60;99.90;;;;;;10406535;28;20559;-85
2022/02/15 00:59:35;;;;;;;1.97;1.87;;;9.60;99.90;;;;;;10436125;28;20681;-86
2022/02/15 01:04:38;;;;;;;1.90;1.80;;;9.60;99.90;;;;;;10443912;28;20221;-85
2022/02/15 01:09:41;;;;;;;1.83;1.73;;;9.60;99.90;;;;;;10420218;28;20200;-85
2022/02/15 01:14:44;;;;;;;3.37;2.43;;;9.60;99.90;;;;;;10415561;28;20226;-84
2022/02/15 01:19:47;;;;;;;2.67;2.47;;;9.50;99.90;;;;;;10439867;28;20237;-85
2022/02/15 01:24:49;;;;;;;2.03;1.93;;;9.50;99.90;;;;;;10458185;28;20673;-84
2022/02/15 01:29:51;;;;;;;2.20;1.90;;;9.40;99.90;;;;;;10427746;28;20204;-86
2022/02/15 01:34:55;;;;;;;2.57;2.37;;;9.40;99.90;;;;;;10404053;28;20221;-85
2022/02/15 01:39:57;;;;;;;2.03;1.93;;;9.20;99.90;;;;;;10421995;28;20223;-86
2022/02/15 01:45:01;;;;;;;2.37;2.20;;;9.10;99.90;;;;;;10416600;28;20226;-86
2022/02/15 01:50:05;;;;;;;2.20;2.03;;;9.00;99.90;;;;;;10428555;28;20193;-86
2022/02/15 01:55:10;;;;;;;2.30;2.10;;;9.00;99.90;;;;;;10404626;28;20220;-84
2022/02/15 02:00:14;;;;;;;2.80;2.17;;;8.90;99.90;;;;;;10412489;28;20217;-84
2022/02/15 02:10:42;;;;;;;2.43;2.23;;;8.90;99.90;;;;;;10422139;28;20229;-85
2022/02/15 02:15:52;;;;;;;2.30;2.10;;;8.90;99.90;;;;;;10414573;28;20715;-86
2022/02/15 02:21:04;;;;;;;2.50;1.97;;;8.90;99.90;;;;;;10418141;28;20213;-86
2022/02/15 02:26:07;;;;;;;2.23;2.00;;;8.90;99.90;;;;;;10427154;28;20312;-86
2022/02/15 02:31:12;;;;;;;2.27;2.07;;;8.90;99.90;;;;;;10413734;28;20189;-87
2022/02/15 02:36:26;;;;;;;2.20;2.00;;;8.90;99.90;;;;;;10418131;28;20217;-86
2022/02/15 02:41:28;;;;;;;2.50;2.33;;;8.90;99.90;;;;;;10428401;28;20698;-87
2022/02/15 02:46:31;;;;;;;2.20;2.10;;;8.90;99.90;;;;;;10426791;28;20229;-86
2022/02/15 02:51:34;;;;;;;2.17;2.00;;;8.80;99.90;;;;;;10404196;28;20198;-86
2022/02/15 02:56:36;;;;;;;1.90;1.80;;;8.80;99.90;;;;;;10403435;28;20208;-86
2022/02/15 03:01:39;;;;;;;2.00;1.90;;;8.80;99.90;;;;;;10428478;28;20243;-86
2022/02/15 03:06:43;;;;;;;2.20;2.03;;;8.80;99.90;;;;;;10427035;28;20727;-86
2022/02/15 03:11:45;;;;;;;2.97;2.40;;;8.80;99.90;;;;;;10419353;28;20197;-86
2022/02/15 03:16:48;;;;;;;2.73;2.53;;;8.80;99.90;;;;;;10430091;28;20204;-87
2022/02/15 03:21:52;;;;;;;3.57;3.27;;;8.90;99.90;;;;;;10420011;28;20225;-87
2022/02/15 03:26:54;;;;;;;3.53;2.53;;;8.90;99.90;;;;;;10420133;28;20673;-87
2022/02/15 03:31:58;;;;;;;5.60;2.43;;;9.00;99.90;;;;;;10442745;28;20788;-87
2022/02/15 03:37:05;;;;;;;2.40;2.03;;;9.00;99.90;;;;;;10440707;28;20234;-87
2022/02/15 03:47:31;;;;;;;2.63;2.43;;;9.00;99.90;;;;;;10425768;28;20201;-86
2022/02/15 03:52:34;;;;;;;2.07;1.97;;;9.00;99.90;;;;;;10422510;28;20217;-87
2022/02/15 03:57:37;;;;;;;2.47;2.27;;;9.00;99.90;;;;;;10413695;28;20292;-86
2022/02/15 04:02:42;;;;;;;2.10;2.00;;;9.10;99.90;;;;;;10424288;28;20221;-87
2022/02/15 04:07:49;;;;;;;2.27;2.00;;;9.10;99.90;;;;;;10424973;28;20201;-87
2022/02/15 04:12:52;;;;;;;2.53;2.30;;;9.10;99.90;;;;;;10442168;28;20786;-87
2022/02/15 04:17:54;;;;;;;2.33;2.00;;;9.10;99.90;;;;;;10478063;28;20201;-86
2022/02/15 04:22:58;;;;;;;4.70;2.20;;;9.10;99.90;;;;;;10422874;28;20239;-86
2022/02/15 04:28:00;;;;;;;3.03;2.17;;;9.10;99.90;;;;;;10416318;28;20204;-87
2022/02/15 04:33:06;;;;;;;2.30;2.10;;;9.10;99.90;;;;;;10444705;28;20295;-87
2022/02/15 04:38:10;;;;;;;2.90;2.10;;;9.10;99.80;;;;;;10418797;28;20210;-86
2022/02/15 04:43:12;;;;;;;2.40;2.20;;;9.10;99.90;;;;;;10398882;28;20320;-87
2022/02/15 04:48:15;;;;;;;3.93;2.17;;;9.10;99.70;;;;;;10400415;28;20614;-87
2022/02/15 04:53:18;;;;;;;3.10;2.33;;;9.10;99.90;;;;;;10422203;28;20621;-87
2022/02/15 04:58:21;;;;;;;2.73;2.50;;;9.10;99.90;;;;;;10425581;28;20201;-87
2022/02/15 05:03:24;;;;;;;2.93;2.73;;;9.10;99.90;;;;;;10424562;28;20228;-85
2022/02/15 05:08:32;;;;;;;3.37;3.07;;;9.10;99.80;;;;;;10409677;28;20213;-87
2022/02/15 05:13:39;;;;;;;5.93;3.43;;;9.00;99.90;;;;;;10405216;28;20232;-86
2022/02/15 05:18:53;;;;;;;2.80;2.60;;;9.00;99.90;;;;;;10392720;28;20205;-86
2022/02/15 05:24:01;;;;;;;4.33;4.03;;;9.10;99.90;;;;;;10419542;28;20221;-86
2022/02/15 05:29:15;;;;;;;3.40;3.20;;;9.10;99.90;;;;;;10416639;28;20684;-86
2022/02/15 05:34:23;;;;;;;3.07;2.83;;;9.20;99.90;;;;;;10423590;28;20632;-83
2022/02/15 05:39:30;;;;;;;3.63;3.00;;;9.20;99.90;;;;;;10438489;28;20334;-83
2022/02/15 05:44:38;;;;;;;2.73;2.33;;;9.20;99.90;;;;;;10414138;28;20225;-83
2022/02/15 05:55:15;;;;;;;2.67;2.47;;;9.20;99.90;;;;;;10442389;28;20217;-84
2022/02/15 06:00:19;;;;;;;2.23;2.13;;;9.10;99.90;;;;;;10420400;28;20642;-85
2022/02/15 06:05:27;;;;;;;2.37;2.20;;;9.10;99.90;;;;;;10428559;28;20217;-86
2022/02/15 06:10:37;;;;;;;3.33;2.20;;;9.10;99.90;;;;;;10410681;28;20208;-85
2022/02/15 06:16:02;;;;;;;3.20;2.37;;;9.10;99.90;;;;;;10408300;28;20220;-85
2022/02/15 06:21:10;;;;;;;2.70;2.50;;;9.10;99.90;;;;;;10406592;28;20267;-85
2022/02/15 06:26:14;;;;;;;2.50;2.30;;;9.20;99.90;;;;;;10424481;28;20247;-85
2022/02/15 06:31:36;;;;;;;2.30;2.17;;;9.20;99.90;;;;;;10400380;28;20584;-85
2022/02/15 06:36:39;;;;;;;2.30;2.10;;;9.20;99.90;;;;;;10397842;28;20622;-85
2022/02/15 06:41:43;;;;;;;2.57;2.33;;;9.30;99.90;;;;;;10397857;28;20209;-85
2022/02/15 06:46:56;;;;;;;3.10;2.50;;;9.20;99.90;;;;;;10395915;28;20285;-84
2022/02/15 06:52:06;;;;;;;3.40;2.40;;;9.20;99.90;;;;;;10429332;28;20228;-84
2022/02/15 06:57:10;;;;;;;4.27;2.37;;;9.10;99.90;;;;;;10416046;28;20225;-84
2022/02/15 07:02:13;;;;;;;2.80;2.60;;;9.10;99.90;;;;;;10389649;28;20275;-84
2022/02/15 07:07:16;;;;;;;2.10;1.90;;;9.20;99.90;;;;;;10430510;28;20201;-84
2022/02/15 07:12:26;;;;;;;2.40;2.20;;;9.20;99.90;;;;;;10413298;28;20304;-85
2022/02/15 07:17:39;;;;;;;2.33;2.23;;;9.30;99.90;;;;;;10422570;28;20209;-85
2022/02/15 07:22:47;;;;;;;2.60;2.40;;;9.20;99.90;;;;;;10421396;28;20221;-84
2022/02/15 07:28:13;;;;;;;2.73;2.50;;;9.20;99.90;;;;;;10440976;28;20205;-85
2022/02/15 07:33:19;;;;;;;3.60;2.50;;;9.10;99.90;;;;;;10418638;28;20224;-84
2022/02/15 07:38:21;;;;;;;3.30;2.03;;;9.10;99.90;;;;;;10395168;28;20202;-85
2022/02/15 07:43:26;;;;;;;3.53;1.90;;;9.20;99.90;;;;;;10408774;28;20225;-84
2022/02/15 07:48:34;;;;;;;2.57;2.37;;;9.20;99.90;;;;;;10409259;28;20202;-85
2022/02/15 07:53:36;;;;;;;2.50;2.30;;;9.20;99.90;;;;;;10411036;28;20233;-84
2022/02/15 07:58:40;;;;;;;2.00;1.90;;;9.20;99.90;;;;;;10409428;28;20209;-85
2022/02/15 08:03:42;;;;;;;2.40;2.23;;;9.20;99.90;;;;;;10423217;28;20231;-84
2022/02/15 08:08:45;;;;;;;1.63;1.53;;;9.30;99.90;;;;;;10420287;28;20205;-85
2022/02/15 08:13:49;;;;;;;3.43;2.40;;;9.30;99.90;;;;;;10416770;28;20236;-84
2022/02/15 08:18:51;;;;;;;1.80;1.70;;;9.40;99.90;;;;;;10446958;28;20642;-84
2022/02/15 08:23:53;;;;;;;2.70;2.40;;;9.50;99.90;;;;;;10477879;28;20708;-85
2022/02/15 08:28:57;;;;;;;2.63;2.40;;;9.50;99.90;;;;;;10440533;28;20205;-84
2022/02/15 08:33:59;;;;;;;2.37;2.10;;;9.50;99.90;;;;;;10405684;28;20220;-83
2022/02/15 08:39:02;;;;;;;2.17;2.07;;;9.50;99.90;;;;;;10425654;28;20206;-85
2022/02/15 08:44:06;;;;;;;2.10;2.00;;;9.60;99.90;;;;;;10437840;28;20766;-84
2022/02/15 08:49:08;;;;;;;3.30;2.60;;;9.60;99.90;;;;;;10451453;28;20208;-83
2022/02/15 08:54:11;;;;;;;2.20;1.97;;;9.70;99.90;;;;;;10424213;28;20217;-84
2022/02/15 08:59:14;;;;;;;1.90;1.80;;;9.70;99.90;;;;;;10442004;28;20208;-85
2022/02/15 09:04:18;;;;;;;1.90;1.60;;;9.70;99.90;;;;;;10457886;28;20268;-84
2022/02/15 09:09:20;;;;;;;1.77;1.67;;;9.80;99.90;;;;;;10402842;28;20229;-84
2022/02/15 09:14:24;;;;;;;2.20;1.80;;;9.80;99.90;;;;;;10418682;28;20221;-84
2022/02/15 09:19:26;;;;;;;2.20;2.00;;;9.90;99.90;;;;;;10424897;28;20247;-84
2022/02/15 09:24:28;;;;;;;1.77;1.67;;;10.10;99.90;;;;;;10433558;28;20221;-84
2022/02/15 09:29:32;;;;;;;1.63;1.53;;;10.20;99.90;;;;;;10448502;28;20220;-84
2022/02/15 09:34:34;;;;;;;1.77;1.60;;;10.20;99.90;;;;;;10427235;28;20716;-84
2022/02/15 09:39:36;;;;;;;2.20;2.10;;;10.20;99.30;;;;;;10445115;28;20262;-84
2022/02/15 09:44:40;;;;;;;1.80;1.70;;;10.20;99.90;;;;;;10432013;28;20321;-84
2022/02/15 09:49:51;;;;;;;2.37;2.17;;;10.30;99.40;;;;;;10434307;28;20197;-85
2022/02/15 09:54:55;;;;;;;2.00;1.90;;;10.30;99.00;;;;;;10415235;28;20214;-84
2022/02/15 09:59:59;;;;;;;2.60;2.40;;;10.30;99.10;;;;;;10427146;28;20209;-84
2022/02/15 10:05:01;;;;;;;2.27;1.97;;;10.50;99.00;;;;;;10451672;28;20220;-85
2022/02/15 10:10:04;;;;;;;2.73;2.20;;;10.70;99.20;;;;;;10468419;28;20210;-85
2022/02/15 10:15:11;;;;;;;3.20;2.67;;;10.90;98.60;;;;;;10438422;28;20231;-84
2022/02/15 10:20:13;;;;;;;2.03;1.93;;;10.90;97.70;;;;;;10471957;28;20661;-84
2022/02/15 10:25:18;;;;;;;2.60;2.43;;;11.00;97.60;;;;;;10437376;28;20255;-85
2022/02/15 10:30:29;;;;;;;2.20;2.00;;;11.10;96.90;;;;;;10472588;28;20203;-85
2022/02/15 10:35:31;;;;;;;2.27;2.07;;;11.10;96.30;;;;;;10464985;28;20228;-84
2022/02/15 10:40:34;;;;;;;2.23;2.10;;;11.10;96.60;;;;;;10411713;28;20233;-84
2022/02/15 10:45:37;;;;;;;2.73;2.13;;;11.00;96.80;;;;;;10466308;28;20228;-85
2022/02/15 10:50:40;;;;;;;2.20;2.00;;;10.90;94.90;;;;;;10444500;28;20562;-84
2022/02/15 10:55:42;;;;;;;3.13;2.30;;;10.80;95.50;;;;;;10447578;28;20213;-84
2022/02/15 11:00:46;;;;;;;2.23;2.13;;;10.80;96.00;;;;;;10462313;28;20689;-84
2022/02/15 11:05:49;;;;;;;1.93;1.83;;;10.80;94.70;;;;;;10460158;28;20260;-85
2022/02/15 11:11:00;;;;;;;2.43;2.20;;;10.80;94.80;;;;;;10450439;28;20206;-84
2022/02/15 11:16:11;;;;;;;1.97;1.87;;;10.80;95.20;;;;;;10447199;28;20248;-85
2022/02/15 11:21:23;;;;;;;2.37;1.80;;;10.70;95.30;;;;;;10446706;28;20204;-84
2022/02/15 11:26:32;;;;;;;2.37;2.17;;;10.70;95.70;;;;;;10455714;28;20221;-85
2022/02/15 11:31:41;;;;;;;1.77;1.50;;;10.60;95.20;;;;;;10445485;28;20221;-85
2022/02/15 11:36:47;;;;;;;3.80;1.70;;;10.60;94.10;;;;;;10434074;28;20198;-86
2022/02/15 11:41:51;;;;;;;2.13;1.90;;;10.60;95.20;;;;;;10451760;28;20271;-84
2022/02/15 11:46:54;;;;;;;1.93;1.83;;;10.70;94.30;;;;;;10434408;28;20224;-86
2022/02/15 11:51:56;;;;;;;2.47;2.27;;;10.60;93.10;;;;;;10415061;28;20218;-86
2022/02/15 11:56:59;;;;;;;1.50;1.40;;;10.60;93.80;;;;;;10413245;28;20555;-86
2022/02/15 12:02:06;;;;;;;1.90;1.80;;;10.60;92.40;;;;;;10424644;28;20239;-86
2022/02/15 12:07:08;;;;;;;2.03;1.80;;;10.60;92.90;;;;;;10438000;28;20204;-86
2022/02/15 12:12:12;;;;;;;2.70;1.70;;;10.70;93.10;;;;;;10419057;28;20225;-86
2022/02/15 12:17:23;;;;;;;2.63;2.47;;;10.80;93.20;;;;;;10404291;28;20268;-86
2022/02/15 12:22:27;;;;;;;2.10;2.00;;;10.90;93.70;;;;;;10392708;28;20698;-86
2022/02/15 12:27:57;;;;;;;1.80;1.70;;;11.00;92.30;;;;;;10433668;28;20270;-85
2022/02/15 12:33:01;;;;;;;3.00;1.73;;;11.10;93.90;;;;;;10415761;28;20217;-87
2022/02/15 12:38:04;;;;;;;2.20;2.10;;;11.10;94.10;;;;;;10461086;28;20574;-86
2022/02/15 12:43:07;;;;;;;2.53;2.13;;;11.10;93.30;;;;;;10435683;28;20227;-87
2022/02/15 12:48:37;;;;;;;2.40;2.30;;;11.10;94.00;;;;;;10393198;28;20690;-85
2022/02/15 12:53:48;;;;;;;2.60;2.40;;;11.00;93.80;;;;;;10464262;28;20224;-88
2022/02/15 12:58:52;;;;;;;2.50;2.30;;;11.00;94.30;;;;;;10421670;28;20206;-86
2022/02/15 13:03:58;;;;;;;2.40;2.20;;;11.00;93.40;;;;;;10453449;28;20225;-86
2022/02/15 13:09:00;;;;;;;2.23;2.10;;;11.00;93.60;;;;;;10438758;28;20284;-86
2022/02/15 13:14:02;;;;;;;4.17;2.43;;;11.10;93.30;;;;;;10425820;28;20221;-86
2022/02/15 13:19:06;;;;;;;3.00;2.80;;;11.10;94.00;;;;;;10465923;28;20201;-86
2022/02/15 13:24:09;;;;;;;2.73;2.20;;;11.20;94.50;;;;;;10419429;28;20728;-86
2022/02/15 13:29:22;;;;;;;2.47;2.27;;;11.20;94.70;;;;;;10411923;28;20293;-85
2022/02/15 13:34:34;;;;;;;2.53;2.33;;;11.20;94.60;;;;;;10429100;28;20217;-87
2022/02/15 13:39:39;;;;;;;3.00;2.77;;;11.20;93.80;;;;;;10405516;28;20201;-86
2022/02/15 13:44:42;;;;;;;2.73;2.30;;;11.00;94.50;;;;;;10411215;28;20300;-86
2022/02/15 13:49:46;;;;;;;2.20;2.10;;;10.90;95.80;;;;;;10429946;28;20300;-86
2022/02/15 13:54:49;;;;;;;2.67;2.30;;;10.80;95.10;;;;;;10424324;28;20252;-85
2022/02/15 13:59:51;;;;;;;2.00;1.90;;;10.70;94.90;;;;;;10404551;28;20236;-86
2022/02/15 14:04:55;;;;;;;2.43;2.23;;;10.50;96.30;;;;;;10423312;28;20217;-86
2022/02/15 14:09:59;;;;;;;2.37;2.17;;;10.30;97.40;;;;;;10408858;28;20217;-86
2022/02/15 14:15:01;;;;;;;1.70;1.60;;;10.30;98.40;;;;;;10399981;28;20229;-86
2022/02/15 14:20:07;;;;;;;2.70;2.50;;;10.30;98.50;;;;;;10403205;28;20322;-86
2022/02/15 14:25:11;;;;;;;2.60;2.07;;;10.30;98.10;;;;;;10421078;28;20232;-87
2022/02/15 14:30:18;;;;;;;2.40;2.30;;;10.30;98.40;;;;;;10425010;28;20200;-86
2022/02/15 14:35:24;;;;;;;2.07;1.97;;;10.30;98.80;;;;;;10435762;28;20217;-86
2022/02/15 14:40:26;;;;;;;2.17;1.97;;;10.40;97.80;;;;;;10420982;28;20217;-85
2022/02/15 14:46:03;;;;;;;3.00;2.80;;;10.50;98.80;;;;;;10405195;28;20275;-86
2022/02/15 14:51:17;;;;;;;2.07;1.97;;;10.50;97.70;;;;;;10428004;28;20193;-87
2022/02/15 14:56:19;;;;;;;2.40;2.30;;;10.50;97.20;;;;;;10393111;28;20229;-86
2022/02/15 15:01:22;;;;;;;2.13;2.03;;;10.50;97.30;;;;;;10421143;28;20308;-85
2022/02/15 15:06:26;;;;;;;2.43;2.27;;;10.50;97.60;;;;;;10406730;28;20256;-86
2022/02/15 15:11:28;;;;;;;2.30;2.10;;;10.50;97.60;;;;;;10426802;28;20201;-86
2022/02/15 15:16:33;;;;;;;2.00;1.90;;;10.40;97.90;;;;;;10424512;28;20253;-86
2022/02/15 15:21:42;;;;;;;2.20;2.10;;;10.40;97.00;;;;;;10443907;28;20212;-87
2022/02/15 15:26:45;;;;;;;4.10;2.10;;;10.20;97.40;;;;;;10427634;28;20456;-86
2022/02/15 15:31:52;;;;;;;2.10;1.90;;;10.10;96.60;;;;;;10451057;28;20734;-86
2022/02/15 15:36:56;;;;;;;5.37;2.27;;;10.00;96.20;;;;;;10427894;28;20221;-85
2022/02/15 15:42:02;;;;;;;3.00;2.67;;;9.90;98.20;;;;;;10436363;28;20597;-86
2022/02/15 15:47:07;;;;;;;3.63;2.23;;;10.00;96.40;;;;;;10434327;28;20252;-86
2022/02/15 15:52:11;;;;;;;3.40;2.23;;;10.00;97.10;;;;;;10402545;28;20268;-87
2022/02/15 15:57:14;;;;;;;3.40;3.10;;;10.00;96.70;;;;;;10396041;28;20209;-86
2022/02/15 16:02:16;;;;;;;2.90;2.70;;;10.00;96.10;;;;;;10418849;28;20221;-86
2022/02/15 16:07:19;;;;;;;1.73;1.63;;;9.90;96.40;;;;;;10438365;28;20616;-86
2022/02/15 16:12:22;;;;;;;2.90;2.03;;;9.80;97.40;;;;;;10428069;28;20612;-86
2022/02/15 16:17:24;;;;;;;2.07;1.97;;;9.90;97.10;;;;;;10442587;28;20204;-86
2022/02/15 16:22:28;;;;;;;4.17;2.10;;;9.80;97.90;;;;;;10395632;28;20312;-86
2022/02/15 16:27:31;;;;;;;2.13;2.00;;;9.80;95.80;;;;;;10440327;28;20583;-86
2022/02/15 16:32:33;;;;;;;2.50;2.40;;;9.70;97.00;;;;;;10405456;28;20588;-86
2022/02/15 16:37:38;;;;;;;2.20;1.97;;;9.70;97.00;;;;;;10385664;28;20202;-86
2022/02/15 16:42:40;;;;;;;5.20;3.30;;;9.60;97.70;;;;;;10437960;28;20214;-86
2022/02/15 16:47:44;;;;;;;3.00;2.80;;;9.60;97.30;;;;;;10383946;28;20290;-86
2022/02/15 16:52:48;;;;;;;6.70;2.73;;;9.50;97.10;;;;;;10428386;28;20279;-85
2022/02/15 16:57:51;;;;;;;8.03;5.97;;;9.30;96.80;;;;;;10441167;28;20213;-86
2022/02/15 17:02:53;;;;;;;8.77;7.40;;;9.10;96.70;;;;;;10426212;28;20307;-86
2022/02/15 17:07:57;;;;;;;7.13;4.80;;;8.90;96.40;;;;;;10424742;28;20276;-87
2022/02/15 17:12:59;;;;;;;10.53;5.60;;;8.70;97.50;;;;;;10440293;28;20231;-86
2022/02/15 17:18:01;;;;;;;3.30;2.53;;;8.50;96.80;;;;;;10416169;28;20730;-86
2022/02/15 17:23:06;;;;;;;3.07;2.70;;;8.30;96.30;;;;;;10411855;28;20213;-86
2022/02/15 17:28:09;;;;;;;3.73;3.30;;;8.30;97.40;;;;;;10399149;28;20269;-87
2022/02/15 17:33:12;;;;;;;4.50;3.70;;;8.30;97.00;;;;;;10389795;28;20248;-86
2022/02/15 17:38:17;;;;;;;6.50;3.20;;;8.30;97.50;;;;;;10398508;28;20190;-86
2022/02/15 17:43:19;;;;;;;6.47;3.50;;;8.40;96.60;;;;;;10402369;28;20239;-86
2022/02/15 17:48:22;;;;;;;2.70;2.50;;;8.40;97.40;;;;;;10410381;28;20221;-86
2022/02/15 17:53:26;;;;;;;2.33;2.13;;;8.50;96.60;;;;;;10405924;28;20282;-85
2022/02/15 17:58:28;;;;;;;2.20;2.07;;;8.40;96.70;;;;;;10425991;28;20284;-85
2022/02/15 18:03:31;;;;;;;2.10;1.90;;;8.40;96.70;;;;;;10399425;28;20253;-86
2022/02/15 18:08:34;;;;;;;2.90;2.10;;;8.40;97.70;;;;;;10379819;28;20202;-86
2022/02/15 18:13:36;;;;;;;2.80;2.10;;;8.40;97.70;;;;;;10396685;28;20224;-86
2022/02/15 18:18:40;;;;;;;2.13;1.80;;;8.40;97.50;;;;;;10396741;28;20204;-86
2022/02/15 18:23:43;;;;;;;2.97;2.67;;;8.40;97.40;;;;;;10415747;28;20733;-86
2022/02/15 18:28:46;;;;;;;6.63;3.30;;;8.40;96.70;;;;;;10419663;28;20201;-85
2022/02/15 18:33:49;;;;;;;2.77;2.57;;;8.30;96.70;;;;;;10406806;28;20213;-85
2022/02/15 18:38:56;;;;;;;2.93;2.70;;;8.10;96.90;;;;;;10433094;28;20201;-85
2022/02/15 18:43:58;;;;;;;2.97;2.77;;;8.10;97.50;;;;;;10446065;28;20221;-86
2022/02/15 18:49:03;;;;;;;3.50;3.20;;;8.10;97.20;;;;;;10447179;28;20200;-87
2022/02/15 18:54:07;;;;;;;2.50;2.30;;;7.90;97.80;;;;;;10430001;28;20202;-86
2022/02/15 18:59:09;;;;;;;2.97;2.77;;;7.80;97.20;;;;;;10445004;28;20205;-85
2022/02/15 19:04:14;;;;;;;3.90;3.00;;;7.80;98.10;;;;;;10426926;28;20229;-85
2022/02/15 19:09:21;;;;;;;3.40;3.07;;;7.80;97.90;;;;;;10466979;28;20203;-85
2022/02/15 19:14:23;;;;;;;4.60;2.67;;;7.70;97.80;;;;;;10431463;28;20599;-85
2022/02/15 19:19:27;;;;;;;2.67;2.53;;;7.70;97.90;;;;;;10431985;28;20292;-85
2022/02/15 19:24:31;;;;;;;3.20;3.00;;;7.60;98.00;;;;;;10447247;28;20221;-86
2022/02/15 19:29:34;;;;;;;4.00;3.30;;;7.60;97.80;;;;;;10396920;28;20225;-85
2022/02/15 19:34:37;;;;;;;2.83;2.70;;;7.50;98.30;;;;;;10407557;28;20568;-85
2022/02/15 19:39:40;;;;;;;4.60;2.80;;;7.40;98.50;;;;;;10408120;28;20206;-86
2022/02/15 19:44:43;;;;;;;3.10;2.90;;;7.50;98.50;;;;;;10431748;28;20276;-85
2022/02/15 19:49:45;;;;;;;3.40;3.10;;;7.50;98.20;;;;;;10436778;28;20232;-86
2022/02/15 19:54:48;;;;;;;2.73;2.53;;;7.50;98.50;;;;;;10421025;28;20681;-85
2022/02/15 19:59:51;;;;;;;3.63;3.43;;;7.30;99.20;;;;;;10448647;28;20205;-85
2022/02/15 20:04:53;;;;;;;3.20;2.90;;;7.40;98.90;;;;;;10445110;28;20246;-86
2022/02/15 20:09:57;;;;;;;2.90;2.70;;;7.30;98.90;;;;;;10419163;28;20635;-85
2022/02/15 20:14:59;;;;;;;3.97;3.10;;;7.30;99.00;;;;;;10407020;28;20260;-85
2022/02/15 20:20:01;;;;;;;3.90;3.60;;;7.30;99.30;;;;;;10429179;28;20201;-85
2022/02/15 20:25:08;;;;;;;3.27;3.07;;;7.30;99.10;;;;;;10406193;28;20231;-85
2022/02/15 20:30:12;;;;;;;3.60;3.30;;;7.30;98.90;;;;;;10406615;28;20251;-86
2022/02/15 20:35:14;;;;;;;3.27;3.00;;;7.30;98.90;;;;;;10418525;28;20279;-85
2022/02/15 20:40:20;;;;;;;4.80;3.00;;;7.30;98.70;;;;;;10416308;28;20201;-86
2022/02/15 20:45:22;;;;;;;3.57;2.67;;;7.30;98.20;;;;;;10404906;28;20221;-85
2022/02/15 20:50:25;;;;;;;3.53;2.93;;;7.30;98.50;;;;;;10420169;28;20205;-86
2022/02/15 20:55:28;;;;;;;3.50;3.17;;;7.30;99.40;;;;;;10424934;28;20241;-86
2022/02/15 21:00:31;;;;;;;3.50;3.00;;;7.30;99.20;;;;;;10414099;28;20297;-85
2022/02/15 21:05:33;;;;;;;3.43;3.00;;;7.30;98.40;;;;;;10416267;28;20220;-85
2022/02/15 21:10:38;;;;;;;3.47;3.17;;;7.30;98.30;;;;;;10443543;28;20587;-85
2022/02/15 21:15:40;;;;;;;3.50;3.20;;;7.30;98.80;;;;;;10424113;28;20244;-86
2022/02/15 21:20:43;;;;;;;4.10;3.20;;;7.30;98.80;;;;;;10423655;28;20201;-85
2022/02/15 21:25:46;;;;;;;3.67;3.37;;;7.30;97.80;;;;;;10421907;28;20274;-86
2022/02/15 21:30:48;;;;;;;3.90;3.50;;;7.30;97.80;;;;;;10419191;28;20219;-85
2022/02/15 21:35:51;;;;;;;4.30;3.90;;;7.30;97.90;;;;;;10447330;28;20292;-85
2022/02/15 21:40:54;;;;;;;3.43;3.13;;;7.40;98.30;;;;;;10418066;28;20284;-86
2022/02/15 21:45:57;;;;;;;3.57;3.10;;;7.40;97.50;;;;;;10439887;28;20232;-85
2022/02/15 21:51:00;;;;;;;4.00;2.90;;;7.30;97.50;;;;;;10416259;28;20561;-86
2022/02/15 21:56:04;;;;;;;3.20;2.77;;;7.30;96.80;;;;;;10421949;28;20217;-85
2022/02/15 22:01:06;;;;;;;3.10;2.83;;;7.30;97.80;;;;;;10415578;28;20202;-86
2022/02/15 22:06:09;;;;;;;2.80;2.47;;;7.30;97.60;;;;;;10429262;28;20229;-82
2022/02/15 22:11:13;;;;;;;2.93;2.73;;;7.30;97.30;;;;;;10472773;28;20205;-82
2022/02/15 22:16:16;;;;;;;3.93;3.10;;;7.40;97.30;;;;;;10452084;28;20233;-81
2022/02/15 22:21:18;;;;;;;3.17;2.80;;;7.40;96.70;;;;;;10415252;28;20228;-83
2022/02/15 22:26:22;;;;;;;3.37;2.40;;;7.30;96.20;;;;;;10438084;28;20225;-81
2022/02/15 22:31:24;;;;;;;2.80;2.60;;;7.30;96.50;;;;;;10471631;28;20276;-83
2022/02/15 22:36:26;;;;;;;2.50;2.20;;;7.30;96.30;;;;;;10450580;28;20227;-85
2022/02/15 22:41:30;;;;;;;2.90;2.43;;;7.40;96.50;;;;;;10472897;28;20205;-86
2022/02/15 22:46:33;;;;;;;4.43;2.60;;;7.40;96.00;;;;;;10454803;28;20220;-84
2022/02/15 22:51:35;;;;;;;2.50;2.30;;;7.30;95.50;;;;;;10450814;28;20587;-86
2022/02/15 22:56:38;;;;;;;2.33;1.90;;;7.30;96.10;;;;;;10459288;28;20194;-87
2022/02/15 23:01:41;;;;;;;2.00;1.90;;;7.40;95.80;;;;;;10482901;28;20212;-84
2022/02/15 23:22:44;;;;;;;2.77;1.80;;;7.20;95.10;;;;;;10457841;28;20213;-84
2022/02/15 23:27:48;;;;;;;2.27;2.13;;;7.20;94.70;;;;;;10459845;28;20252;-87
2022/02/15 23:32:51;;;;;;;4.40;2.50;;;7.30;94.30;;;;;;10457766;28;20229;-87
2022/02/15 23:37:53;;;;;;;4.40;2.17;;;7.30;94.40;;;;;;10445921;28;20201;-86
2022/02/15 23:42:56;;;;;;;1.93;1.70;;;7.30;94.70;;;;;;10434138;28;20301;-84
2022/02/15 23:47:59;;;;;;;1.90;1.80;;;7.40;94.00;;;;;;10449596;28;20218;-86
2022/02/15 23:53:01;;;;;;;3.97;2.13;;;7.30;94.60;;;;;;10443150;28;20224;-85
2022/02/15 23:58:05;;;;;;;2.30;2.10;;;7.30;93.70;;;;;;10442457;28;20206;-85
